Bombay, Minnesota
Current Conditions -  °F | °C
As of 4:34 AM on Monday 26 Jan 2015 (Local Time) from KSYN Reporting Station
Light Snow Light Snow  
Wind Chill: 19°   Ceiling: 1900
Heat Index: 28°   Visibility: 5mi
Dew Point: 24°   Wind: 10mph
Humidity: 84%   Direction: 190°S
Pressure: 29.77"   Gusts: 17mph
Location:  44.2435°N, 92.9583°W
Report Text: KSYN 261034Z AUTO 19009G15KT 5SM -SN SCT013 BKN019 OVC025 M02/M04 A2977 RMK AO2 T10201044
Loading
Personal Weather Stations






























Interactive Weather Map New forecast layout! Learn more

10-Day Weather Forecast

Advertisements
Track Severe Weather on mobile